Time;durP1;ratioP1;P1;durP2;ratioP2;P2;SDS_P1;SDS_P2;PMS_P1;PMS_P2;Temp;Humidity;BMP_temperature;BMP_pressure;BME280_temperature;BME280_humidity;BME280_pressure;Samples;Min_cycle;Max_cycle;Signal;HPM_P1;HPM_P2
2023/06/05 00:00:49;;;;;;;3.50;1.77;;;;;;;;;;5027840;28;20091;-74
2023/06/05 00:03:17;;;;;;;2.65;1.90;;;;;;;;;;5028594;28;20061;-74
2023/06/05 00:05:45;;;;;;;2.13;1.90;;;;;;;;;;5028506;28;20141;-74
2023/06/05 00:08:12;;;;;;;4.10;1.95;;;;;;;;;;4979987;28;20132;-74
2023/06/05 00:10:39;;;;;;;2.63;2.13;;;;;;;;;;5028242;28;20081;-74
2023/06/05 00:13:06;;;;;;;3.05;1.60;;;;;;;;;;5035430;28;20107;-74
2023/06/05 00:15:35;;;;;;;2.55;1.75;;;;;;;;;;5028084;28;20057;-74
2023/06/05 00:18:04;;;;;;;2.38;1.65;;;;;;;;;;5012163;28;20051;-74
2023/06/05 00:20:31;;;;;;;3.42;1.75;;;;;;;;;;5027670;28;20126;-74
2023/06/05 00:22:58;;;;;;;4.75;2.05;;;;;;;;;;5028079;28;20399;-74
2023/06/05 00:25:24;;;;;;;2.67;1.75;;;;;;;;;;5028021;28;20085;-74
2023/06/05 00:27:51;;;;;;;2.50;1.83;;;;;;;;;;5027049;28;20414;-74
2023/06/05 00:30:18;;;;;;;2.60;1.67;;;;;;;;;;5027734;28;20072;-74
2023/06/05 00:32:45;;;;;;;4.13;1.70;;;;;;;;;;5027832;28;20054;-74
2023/06/05 00:35:12;;;;;;;3.10;1.90;;;;;;;;;;5027747;28;20096;-74
2023/06/05 00:37:39;;;;;;;2.67;2.00;;;;;;;;;;5080727;23;20048;-83
2023/06/05 00:40:06;;;;;;;2.72;1.77;;;;;;;;;;4996944;28;20767;-84
2023/06/05 00:42:33;;;;;;;3.60;1.70;;;;;;;;;;4997181;28;20061;-83
2023/06/05 00:45:00;;;;;;;4.15;1.85;;;;;;;;;;5013726;28;20498;-84
2023/06/05 00:47:27;;;;;;;2.45;1.80;;;;;;;;;;5013802;28;20061;-84
2023/06/05 00:49:54;;;;;;;4.57;2.25;;;;;;;;;;4997367;28;20491;-83
2023/06/05 00:52:20;;;;;;;2.58;2.00;;;;;;;;;;5012990;28;20057;-84
2023/06/05 00:54:47;;;;;;;2.38;1.90;;;;;;;;;;5013573;28;20057;-84
2023/06/05 00:57:14;;;;;;;2.38;2.10;;;;;;;;;;4997736;28;20062;-84
2023/06/05 00:59:44;;;;;;;3.58;1.85;;;;;;;;;;5013654;28;20054;-84
2023/06/05 01:02:15;;;;;;;3.70;1.95;;;;;;;;;;4998252;28;20141;-84
2023/06/05 01:04:43;;;;;;;3.90;2.30;;;;;;;;;;4998503;28;20084;-84
2023/06/05 01:07:10;;;;;;;2.67;1.88;;;;;;;;;;5014430;28;20111;-83
2023/06/05 01:09:37;;;;;;;2.13;1.83;;;;;;;;;;4998749;28;20053;-84
2023/06/05 01:12:17;;;;;;;3.05;2.22;;;;;;;;;;4998212;28;20494;-84
2023/06/05 01:14:49;;;;;;;2.40;1.77;;;;;;;;;;4998581;28;20053;-84
2023/06/05 01:17:18;;;;;;;3.70;1.67;;;;;;;;;;4999213;28;20065;-84
2023/06/05 01:19:46;;;;;;;2.35;1.85;;;;;;;;;;4999287;28;20057;-84
2023/06/05 01:22:12;;;;;;;3.08;1.90;;;;;;;;;;4998072;28;20092;-84
2023/06/05 01:24:40;;;;;;;4.00;2.28;;;;;;;;;;5014986;28;20058;-84
2023/06/05 01:27:17;;;;;;;4.35;2.38;;;;;;;;;;4999370;28;20061;-84
2023/06/05 01:29:44;;;;;;;3.13;2.03;;;;;;;;;;5000647;28;20057;-84
2023/06/05 01:32:31;;;;;;;3.97;2.38;;;;;;;;;;5030895;28;20112;-84
2023/06/05 01:34:59;;;;;;;4.72;2.50;;;;;;;;;;4984149;28;20054;-83
2023/06/05 01:37:26;;;;;;;3.42;2.28;;;;;;;;;;4998828;28;20116;-84
2023/06/05 01:39:55;;;;;;;3.85;2.58;;;;;;;;;;5001357;28;20050;-83
2023/06/05 01:42:23;;;;;;;3.45;2.42;;;;;;;;;;5018887;28;20053;-84
2023/06/05 01:44:50;;;;;;;4.68;2.95;;;;;;;;;;5018512;28;20053;-83
2023/06/05 01:47:17;;;;;;;6.75;3.00;;;;;;;;;;5002610;28;20201;-84
2023/06/05 01:49:44;;;;;;;4.03;2.90;;;;;;;;;;5018447;28;20136;-83
2023/06/05 01:52:11;;;;;;;8.27;3.35;;;;;;;;;;5018849;28;20534;-83
2023/06/05 01:54:38;;;;;;;4.43;2.78;;;;;;;;;;5018477;28;20145;-83
2023/06/05 01:57:06;;;;;;;6.57;3.10;;;;;;;;;;5002653;28;20057;-84
2023/06/05 01:59:33;;;;;;;6.80;2.90;;;;;;;;;;5002878;28;20426;-84
2023/06/05 02:02:00;;;;;;;3.83;2.42;;;;;;;;;;5002633;28;20125;-83
2023/06/05 02:04:29;;;;;;;4.43;2.80;;;;;;;;;;5003337;28;20461;-83
2023/06/05 02:06:58;;;;;;;8.43;2.95;;;;;;;;;;5019052;28;20057;-84
2023/06/05 02:09:24;;;;;;;3.67;2.47;;;;;;;;;;5003950;28;20054;-84
2023/06/05 02:11:53;;;;;;;5.28;2.60;;;;;;;;;;5018893;28;20053;-84
2023/06/05 02:14:20;;;;;;;3.85;2.47;;;;;;;;;;5002990;28;20062;-84
2023/06/05 02:16:47;;;;;;;3.92;2.78;;;;;;;;;;5018568;28;20137;-83
2023/06/05 02:19:15;;;;;;;3.15;2.63;;;;;;;;;;5002840;28;20057;-83
2023/06/05 02:21:41;;;;;;;4.78;2.50;;;;;;;;;;5018637;28;20506;-82
2023/06/05 02:24:08;;;;;;;7.75;2.88;;;;;;;;;;5019389;28;20140;-82
2023/06/05 02:26:35;;;;;;;3.50;2.67;;;;;;;;;;5003101;28;20096;-81
2023/06/05 02:29:02;;;;;;;5.95;2.90;;;;;;;;;;5019138;28;20058;-82
2023/06/05 02:31:29;;;;;;;3.92;2.75;;;;;;;;;;5003336;28;20056;-82
2023/06/05 02:33:56;;;;;;;5.07;2.95;;;;;;;;;;5018630;28;20081;-84
2023/06/05 02:36:24;;;;;;;4.20;2.65;;;;;;;;;;5002480;28;20117;-84
2023/06/05 02:38:52;;;;;;;3.85;2.83;;;;;;;;;;5003702;28;20104;-84
2023/06/05 02:41:19;;;;;;;4.13;2.97;;;;;;;;;;5019227;28;20105;-83
2023/06/05 02:43:46;;;;;;;4.28;2.85;;;;;;;;;;5003450;28;20109;-83
2023/06/05 02:46:13;;;;;;;5.65;2.90;;;;;;;;;;5019562;28;20045;-83
2023/06/05 02:48:39;;;;;;;6.30;3.35;;;;;;;;;;5024491;28;20054;-84
2023/06/05 02:51:06;;;;;;;4.15;2.60;;;;;;;;;;5007017;28;20114;-84
2023/06/05 02:53:33;;;;;;;4.85;2.78;;;;;;;;;;5023900;28;20149;-83
2023/06/05 02:56:01;;;;;;;5.25;3.05;;;;;;;;;;5007766;28;20590;-83
2023/06/05 02:58:28;;;;;;;4.57;3.30;;;;;;;;;;5007904;28;20085;-83
2023/06/05 03:01:01;;;;;;;3.30;2.42;;;;;;;;;;5022449;28;20108;-83
2023/06/05 03:03:32;;;;;;;4.32;2.90;;;;;;;;;;5022789;28;20069;-83
2023/06/05 03:06:06;;;;;;;3.63;3.00;;;;;;;;;;5005725;28;20077;-83
2023/06/05 03:08:34;;;;;;;6.22;2.88;;;;;;;;;;5023549;28;20057;-84
2023/06/05 03:11:02;;;;;;;5.30;2.78;;;;;;;;;;5006018;28;20050;-83
2023/06/05 03:13:29;;;;;;;4.22;2.45;;;;;;;;;;5005688;28;20053;-83
2023/06/05 03:16:00;;;;;;;4.55;2.67;;;;;;;;;;5021855;28;20478;-83
2023/06/05 03:18:28;;;;;;;5.10;3.15;;;;;;;;;;5007414;28;20505;-83
2023/06/05 03:20:55;;;;;;;5.22;3.05;;;;;;;;;;5020860;28;20136;-83
2023/06/05 03:23:23;;;;;;;6.65;3.67;;;;;;;;;;5005473;28;20173;-84
2023/06/05 03:25:51;;;;;;;4.00;2.88;;;;;;;;;;5021436;28;20111;-83
2023/06/05 03:28:18;;;;;;;3.15;2.58;;;;;;;;;;5004634;28;20494;-84
2023/06/05 03:30:45;;;;;;;5.75;2.72;;;;;;;;;;5002791;28;20058;-83
2023/06/05 03:33:13;;;;;;;4.32;2.97;;;;;;;;;;4999909;28;20510;-83
2023/06/05 03:35:42;;;;;;;5.07;3.28;;;;;;;;;;5001792;28;20135;-83
2023/06/05 03:38:09;;;;;;;4.57;3.20;;;;;;;;;;5000911;28;20121;-83
2023/06/05 03:40:39;;;;;;;5.95;3.65;;;;;;;;;;5033003;28;20454;-83
2023/06/05 03:43:06;;;;;;;11.27;5.95;;;;;;;;;;5001681;28;20058;-83
2023/06/05 03:45:34;;;;;;;8.52;4.22;;;;;;;;;;5001841;28;20136;-83
2023/06/05 03:48:02;;;;;;;8.15;5.07;;;;;;;;;;4985589;28;20081;-84
2023/06/05 03:50:30;;;;;;;10.02;5.20;;;;;;;;;;5018170;28;20053;-83
2023/06/05 03:53:02;;;;;;;19.52;9.65;;;;;;;;;;5022528;28;20050;-81
2023/06/05 03:55:41;;;;;;;19.23;9.70;;;;;;;;;;5022225;28;20113;-81
2023/06/05 03:58:13;;;;;;;18.00;8.82;;;;;;;;;;5008324;28;20085;-81
2023/06/05 04:00:42;;;;;;;17.75;9.27;;;;;;;;;;5003181;28;20050;-81
2023/06/05 04:03:10;;;;;;;15.75;8.70;;;;;;;;;;5001655;28;20064;-81
2023/06/05 04:05:38;;;;;;;12.73;6.80;;;;;;;;;;5018181;28;20514;-82
2023/06/05 04:08:06;;;;;;;12.75;6.78;;;;;;;;;;5001459;28;20122;-81
2023/06/05 04:10:32;;;;;;;13.88;6.43;;;;;;;;;;5000952;28;20145;-81
2023/06/05 04:12:59;;;;;;;9.27;6.35;;;;;;;;;;5016930;28;20096;-81
2023/06/05 04:15:27;;;;;;;12.13;6.57;;;;;;;;;;5001905;28;20465;-81
2023/06/05 04:17:54;;;;;;;11.40;6.95;;;;;;;;;;5001205;28;20054;-81
2023/06/05 04:20:21;;;;;;;10.48;6.00;;;;;;;;;;5001856;28;20054;-81
2023/06/05 04:22:48;;;;;;;13.70;6.63;;;;;;;;;;5017633;28;20104;-81
2023/06/05 04:25:15;;;;;;;10.57;5.95;;;;;;;;;;5017398;28;20085;-81
2023/06/05 04:27:43;;;;;;;11.68;5.75;;;;;;;;;;5000744;28;20117;-81
2023/06/05 04:30:11;;;;;;;9.20;5.07;;;;;;;;;;5001819;28;20060;-81
2023/06/05 04:32:39;;;;;;;7.22;4.53;;;;;;;;;;5001804;28;20104;-81
2023/06/05 04:35:08;;;;;;;9.40;4.40;;;;;;;;;;5001387;28;20060;-82
2023/06/05 04:37:36;;;;;;;7.13;4.15;;;;;;;;;;5001867;28;20081;-82
2023/06/05 04:40:10;;;;;;;6.50;3.70;;;;;;;;;;5001919;28;20072;-81
2023/06/05 04:42:37;;;;;;;6.05;3.55;;;;;;;;;;5002964;28;20053;-81
2023/06/05 04:45:06;;;;;;;5.68;4.47;;;;;;;;;;5018790;28;20046;-81
2023/06/05 04:47:33;;;;;;;8.45;4.25;;;;;;;;;;5003682;28;20140;-82
2023/06/05 04:50:04;;;;;;;8.60;5.00;;;;;;;;;;5019108;28;20088;-81
2023/06/05 04:52:32;;;;;;;8.15;4.65;;;;;;;;;;4987638;28;20057;-81
2023/06/05 04:55:02;;;;;;;10.77;6.00;;;;;;;;;;5004262;28;20122;-82
2023/06/05 04:57:29;;;;;;;6.43;3.80;;;;;;;;;;5008301;28;20049;-81
2023/06/05 05:00:00;;;;;;;5.93;2.97;;;;;;;;;;5007013;28;20081;-81
2023/06/05 05:02:26;;;;;;;7.65;3.40;;;;;;;;;;5022221;28;20050;-81
2023/06/05 05:04:53;;;;;;;6.63;3.80;;;;;;;;;;5006598;28;20533;-84
2023/06/05 05:07:22;;;;;;;7.03;3.40;;;;;;;;;;5035163;28;20136;-84
2023/06/05 05:09:48;;;;;;;3.70;2.50;;;;;;;;;;4996343;28;20050;-84
2023/06/05 05:12:15;;;;;;;6.53;2.88;;;;;;;;;;4997243;28;20140;-83
2023/06/05 05:14:44;;;;;;;6.85;2.83;;;;;;;;;;4998106;28;20141;-84
2023/06/05 05:17:11;;;;;;;4.95;2.50;;;;;;;;;;5016483;28;20082;-84
2023/06/05 05:19:41;;;;;;;4.70;2.83;;;;;;;;;;5016304;28;20064;-84
2023/06/05 05:22:08;;;;;;;4.93;2.28;;;;;;;;;;5016192;28;20498;-85
2023/06/05 05:24:34;;;;;;;5.78;2.97;;;;;;;;;;5017024;28;20136;-84
2023/06/05 05:27:01;;;;;;;3.33;2.35;;;;;;;;;;5017718;28;20477;-84
2023/06/05 05:29:29;;;;;;;6.10;3.20;;;;;;;;;;5015269;28;20054;-84
2023/06/05 05:31:55;;;;;;;3.67;2.40;;;;;;;;;;5013351;28;20108;-84
2023/06/05 05:34:22;;;;;;;7.80;2.70;;;;;;;;;;4981209;28;20136;-85
2023/06/05 05:36:49;;;;;;;5.85;2.25;;;;;;;;;;5013782;28;20088;-84
2023/06/05 05:39:16;;;;;;;5.53;2.80;;;;;;;;;;4997515;28;20054;-84
2023/06/05 05:41:43;;;;;;;4.75;2.33;;;;;;;;;;5013660;28;20050;-84
2023/06/05 05:44:11;;;;;;;4.57;2.50;;;;;;;;;;5014362;28;20081;-84
2023/06/05 05:46:37;;;;;;;3.78;2.33;;;;;;;;;;4983615;28;20081;-84
2023/06/05 05:49:07;;;;;;;5.20;2.42;;;;;;;;;;5004365;28;20145;-84
2023/06/05 05:51:34;;;;;;;4.53;2.33;;;;;;;;;;5002422;28;20082;-84
2023/06/05 05:54:01;;;;;;;6.88;2.60;;;;;;;;;;5018883;28;20054;-84
2023/06/05 05:56:28;;;;;;;9.40;2.28;;;;;;;;;;5017841;28;20050;-84
2023/06/05 05:58:55;;;;;;;5.72;2.75;;;;;;;;;;5018311;28;20050;-84
2023/06/05 06:01:22;;;;;;;4.13;2.47;;;;;;;;;;5017192;28;20463;-84
2023/06/05 06:03:49;;;;;;;4.45;2.40;;;;;;;;;;5001287;28;20061;-84
2023/06/05 06:06:16;;;;;;;3.55;2.50;;;;;;;;;;5001296;28;20104;-84
2023/06/05 06:08:43;;;;;;;5.72;2.22;;;;;;;;;;5016507;28;20103;-84
2023/06/05 06:11:09;;;;;;;4.90;2.50;;;;;;;;;;4999380;28;20077;-84
2023/06/05 06:13:37;;;;;;;5.35;2.70;;;;;;;;;;5001628;28;20077;-84
2023/06/05 06:16:03;;;;;;;5.80;2.30;;;;;;;;;;5017029;28;20058;-84
2023/06/05 06:18:30;;;;;;;3.67;2.30;;;;;;;;;;5013979;28;20485;-84
2023/06/05 06:20:58;;;;;;;4.28;2.60;;;;;;;;;;5011152;28;20050;-84
2023/06/05 06:23:25;;;;;;;4.57;2.55;;;;;;;;;;5012145;28;20053;-82
2023/06/05 06:25:52;;;;;;;3.10;2.70;;;;;;;;;;4997662;28;20093;-82
2023/06/05 06:28:19;;;;;;;2.72;2.30;;;;;;;;;;5016048;28;20054;-82
2023/06/05 06:30:46;;;;;;;6.07;2.30;;;;;;;;;;5001865;28;20062;-82
2023/06/05 06:33:13;;;;;;;2.72;2.33;;;;;;;;;;5017213;28;20054;-82
2023/06/05 06:35:40;;;;;;;6.78;3.28;;;;;;;;;;5001267;28;20058;-82
2023/06/05 06:38:07;;;;;;;6.65;2.42;;;;;;;;;;5068261;23;20303;-73
2023/06/05 06:40:34;;;;;;;2.97;2.00;;;;;;;;;;5013612;28;20453;-73
2023/06/05 06:43:01;;;;;;;4.22;2.58;;;;;;;;;;5013445;28;20081;-74
2023/06/05 06:45:27;;;;;;;5.10;2.42;;;;;;;;;;5013610;28;20054;-73
2023/06/05 06:47:54;;;;;;;7.63;2.67;;;;;;;;;;4995929;28;20085;-74
2023/06/05 06:50:33;;;;;;;7.63;3.05;;;;;;;;;;4979372;28;20522;-73
2023/06/05 06:53:01;;;;;;;6.30;2.88;;;;;;;;;;5010395;28;20082;-73
2023/06/05 06:55:28;;;;;;;7.88;2.53;;;;;;;;;;4993848;28;20054;-73
2023/06/05 06:57:54;;;;;;;8.88;2.75;;;;;;;;;;4994141;28;20054;-73
2023/06/05 07:00:23;;;;;;;5.05;2.40;;;;;;;;;;4993615;28;20445;-74
2023/06/05 07:02:50;;;;;;;4.97;2.42;;;;;;;;;;4993874;28;20154;-73
2023/06/05 07:05:19;;;;;;;7.32;3.00;;;;;;;;;;4993676;28;20054;-73
2023/06/05 07:07:46;;;;;;;6.70;3.33;;;;;;;;;;4977947;28;20056;-73
2023/06/05 07:10:13;;;;;;;4.65;2.85;;;;;;;;;;5009542;28;20062;-73
2023/06/05 07:12:40;;;;;;;4.63;2.63;;;;;;;;;;4993467;28;20093;-73
2023/06/05 07:15:07;;;;;;;8.60;3.13;;;;;;;;;;4993511;28;20094;-73
2023/06/05 07:17:34;;;;;;;4.03;2.72;;;;;;;;;;4993628;28;20050;-73
2023/06/05 07:20:03;;;;;;;4.00;2.50;;;;;;;;;;4993330;28;20047;-73
2023/06/05 07:22:30;;;;;;;8.07;2.90;;;;;;;;;;4993395;28;20133;-73
2023/06/05 07:24:57;;;;;;;4.47;2.85;;;;;;;;;;5009508;28;20590;-73
2023/06/05 07:27:23;;;;;;;7.25;2.70;;;;;;;;;;4993319;28;20059;-74
2023/06/05 07:29:53;;;;;;;3.67;2.38;;;;;;;;;;4976965;28;20500;-73
2023/06/05 07:32:20;;;;;;;7.68;2.50;;;;;;;;;;4993141;28;20096;-74
2023/06/05 07:34:48;;;;;;;3.00;2.33;;;;;;;;;;4993095;28;20443;-74
2023/06/05 07:37:15;;;;;;;7.60;2.55;;;;;;;;;;4992621;28;20086;-74
2023/06/05 07:39:42;;;;;;;4.35;2.75;;;;;;;;;;4992762;28;20065;-74
2023/06/05 07:42:09;;;;;;;5.40;2.80;;;;;;;;;;4993733;28;20057;-74
2023/06/05 07:44:35;;;;;;;3.55;2.78;;;;;;;;;;5009028;28;20470;-74
2023/06/05 07:47:02;;;;;;;4.50;3.15;;;;;;;;;;5008787;28;20050;-74
2023/06/05 07:49:31;;;;;;;3.67;2.55;;;;;;;;;;4992543;28;20090;-74
2023/06/05 07:51:59;;;;;;;2.83;2.30;;;;;;;;;;4976546;28;20050;-75
2023/06/05 07:54:26;;;;;;;3.40;2.58;;;;;;;;;;4992892;28;20065;-74
2023/06/05 07:56:54;;;;;;;4.53;3.08;;;;;;;;;;4992634;28;20140;-74
2023/06/05 07:59:24;;;;;;;5.85;2.92;;;;;;;;;;4992446;28;20050;-74
2023/06/05 08:01:52;;;;;;;5.00;2.75;;;;;;;;;;4992111;28;20503;-74
2023/06/05 08:04:19;;;;;;;10.13;2.70;;;;;;;;;;4992288;28;20058;-74
2023/06/05 08:06:46;;;;;;;4.80;2.40;;;;;;;;;;4992169;28;20054;-75
2023/06/05 08:09:13;;;;;;;4.75;2.72;;;;;;;;;;4992164;28;20060;-75
2023/06/05 08:11:41;;;;;;;4.50;2.80;;;;;;;;;;4992340;28;20133;-75
2023/06/05 08:14:08;;;;;;;8.10;2.60;;;;;;;;;;4976556;28;20133;-74
2023/06/05 08:16:35;;;;;;;5.43;2.55;;;;;;;;;;4976235;28;20544;-74
2023/06/05 08:19:02;;;;;;;5.13;2.90;;;;;;;;;;4976298;28;20058;-74
2023/06/05 08:21:30;;;;;;;5.13;2.90;;;;;;;;;;4992159;28;20069;-74
2023/06/05 08:23:57;;;;;;;5.43;2.85;;;;;;;;;;4976380;28;20458;-74
2023/06/05 08:26:24;;;;;;;3.38;2.88;;;;;;;;;;4992339;28;20073;-74
2023/06/05 08:28:50;;;;;;;7.45;2.80;;;;;;;;;;4976274;28;20101;-74
2023/06/05 08:31:17;;;;;;;4.20;3.13;;;;;;;;;;4991934;28;20137;-74
2023/06/05 08:33:44;;;;;;;6.75;2.83;;;;;;;;;;4992210;28;20050;-74
2023/06/05 08:36:11;;;;;;;3.65;2.70;;;;;;;;;;5008339;28;20136;-75
2023/06/05 08:38:38;;;;;;;4.88;2.85;;;;;;;;;;4975760;28;20137;-74
2023/06/05 08:41:10;;;;;;;5.53;3.00;;;;;;;;;;5007656;28;20058;-74
2023/06/05 08:43:37;;;;;;;5.25;3.10;;;;;;;;;;5008014;28;20056;-75
2023/06/05 08:46:06;;;;;;;4.25;3.00;;;;;;;;;;5008177;28;20590;-74
2023/06/05 08:48:34;;;;;;;4.18;3.10;;;;;;;;;;4991384;28;20105;-74
2023/06/05 08:51:01;;;;;;;9.68;3.67;;;;;;;;;;4964114;28;20050;-74
2023/06/05 08:53:32;;;;;;;4.93;3.13;;;;;;;;;;5008438;28;20129;-75
2023/06/05 08:55:58;;;;;;;4.85;3.28;;;;;;;;;;4960161;28;20108;-75
2023/06/05 08:58:25;;;;;;;3.75;3.08;;;;;;;;;;4975354;28;20125;-74
2023/06/05 09:00:53;;;;;;;3.35;2.97;;;;;;;;;;5007370;28;20412;-74
2023/06/05 09:03:20;;;;;;;6.70;3.50;;;;;;;;;;4991626;28;20498;-74
2023/06/05 09:05:48;;;;;;;5.45;3.40;;;;;;;;;;5007415;28;20493;-75
2023/06/05 09:08:18;;;;;;;5.10;3.15;;;;;;;;;;4975181;28;20400;-74
2023/06/05 09:10:44;;;;;;;4.72;3.38;;;;;;;;;;4991237;28;20503;-74
2023/06/05 09:13:11;;;;;;;3.60;3.03;;;;;;;;;;5007892;28;20057;-74
2023/06/05 09:15:38;;;;;;;4.57;3.65;;;;;;;;;;4975802;28;20062;-75
2023/06/05 09:18:14;;;;;;;4.63;3.22;;;;;;;;;;5013103;28;20418;-75
2023/06/05 09:20:45;;;;;;;7.53;3.38;;;;;;;;;;4960317;28;20112;-75
2023/06/05 09:23:26;;;;;;;4.70;3.53;;;;;;;;;;4992013;28;20054;-75
2023/06/05 09:25:57;;;;;;;4.93;3.40;;;;;;;;;;4976762;28;20065;-74
2023/06/05 09:28:23;;;;;;;4.35;3.88;;;;;;;;;;4960298;28;20050;-75
2023/06/05 09:30:54;;;;;;;5.60;3.53;;;;;;;;;;4991021;28;20137;-75
2023/06/05 09:33:22;;;;;;;5.72;3.70;;;;;;;;;;4991443;28;20042;-75
2023/06/05 09:36:03;;;;;;;4.85;3.63;;;;;;;;;;4975070;28;20189;-74
2023/06/05 09:38:30;;;;;;;5.22;3.67;;;;;;;;;;4990972;28;20569;-75
2023/06/05 09:41:05;;;;;;;4.63;3.22;;;;;;;;;;4990850;28;20140;-74
2023/06/05 09:43:32;;;;;;;5.03;3.28;;;;;;;;;;4974789;28;20061;-74
2023/06/05 09:46:09;;;;;;;3.47;3.17;;;;;;;;;;4990989;28;20447;-75
2023/06/05 09:48:38;;;;;;;5.78;3.65;;;;;;;;;;4976361;28;20058;-75
2023/06/05 09:51:11;;;;;;;5.18;3.03;;;;;;;;;;5006722;28;20060;-75
2023/06/05 09:53:41;;;;;;;6.28;3.22;;;;;;;;;;4990980;28;20061;-74
2023/06/05 09:56:13;;;;;;;7.20;3.03;;;;;;;;;;4990788;28;20054;-74
2023/06/05 09:58:48;;;;;;;6.10;3.75;;;;;;;;;;4990796;28;20185;-74
2023/06/05 10:01:22;;;;;;;4.20;2.90;;;;;;;;;;4994237;28;20050;-74
2023/06/05 10:03:59;;;;;;;5.13;2.70;;;;;;;;;;4994551;28;20046;-74
2023/06/05 10:06:27;;;;;;;6.72;2.47;;;;;;;;;;4994392;28;20427;-75
2023/06/05 10:08:57;;;;;;;3.42;2.78;;;;;;;;;;4994251;28;20141;-75
2023/06/05 10:11:27;;;;;;;4.03;3.10;;;;;;;;;;4994507;28;20515;-74
2023/06/05 10:13:55;;;;;;;3.28;2.75;;;;;;;;;;4978913;28;20499;-74
2023/06/05 10:16:21;;;;;;;4.28;2.55;;;;;;;;;;4962903;28;20533;-75
2023/06/05 10:18:52;;;;;;;3.75;2.65;;;;;;;;;;4995494;28;20101;-75
2023/06/05 10:21:19;;;;;;;2.97;2.50;;;;;;;;;;4994437;28;20093;-75
2023/06/05 10:24:03;;;;;;;5.20;2.88;;;;;;;;;;4994545;28;20089;-75
2023/06/05 10:27:01;;;;;;;3.22;2.30;;;;;;;;;;4994564;28;20481;-74
2023/06/05 10:30:09;;;;;;;4.53;2.47;;;;;;;;;;4994235;28;20473;-74
2023/06/05 10:32:39;;;;;;;4.72;2.70;;;;;;;;;;4993060;28;20066;-74
2023/06/05 10:35:43;;;;;;;3.03;2.70;;;;;;;;;;4994076;28;20054;-75
2023/06/05 10:38:26;;;;;;;5.03;2.85;;;;;;;;;;4995089;28;20142;-74
2023/06/05 10:40:59;;;;;;;;;;;;;;;;;;4995078;28;20471;-74
2023/06/05 10:43:37;;;;;;;3.03;2.72;;;;;;;;;;5010117;28;20029;-74
2023/06/05 10:46:31;;;;;;;7.13;2.45;;;;;;;;;;4995125;28;20573;-74
2023/06/05 10:49:07;;;;;;;2.75;2.35;;;;;;;;;;4993732;28;20055;-75
2023/06/05 10:51:39;;;;;;;5.40;2.30;;;;;;;;;;4993987;28;20069;-74
2023/06/05 10:54:07;;;;;;;5.25;2.70;;;;;;;;;;4978357;28;20054;-75
2023/06/05 10:56:53;;;;;;;4.18;2.33;;;;;;;;;;4993895;28;20560;-74
2023/06/05 10:59:24;;;;;;;5.13;2.50;;;;;;;;;;4994035;28;20133;-74
2023/06/05 11:02:06;;;;;;;3.95;2.40;;;;;;;;;;4978089;28;20086;-74
2023/06/05 11:04:42;;;;;;;4.90;2.20;;;;;;;;;;4993817;28;20065;-74
2023/06/05 11:07:29;;;;;;;4.68;2.47;;;;;;;;;;4994289;28;20054;-75
2023/06/05 11:10:02;;;;;;;2.90;2.20;;;;;;;;;;4998485;28;20054;-74
2023/06/05 11:12:38;;;;;;;4.10;2.22;;;;;;;;;;4993619;28;20054;-75
2023/06/05 11:15:09;;;;;;;3.78;2.20;;;;;;;;;;4993575;28;20050;-74
2023/06/05 11:17:44;;;;;;;4.00;2.67;;;;;;;;;;4993901;28;20140;-74
2023/06/05 11:20:23;;;;;;;4.13;2.85;;;;;;;;;;4961589;28;20065;-74
2023/06/05 11:22:52;;;;;;;3.97;2.72;;;;;;;;;;4993317;28;20057;-74
2023/06/05 11:25:28;;;;;;;2.72;2.40;;;;;;;;;;4993173;28;20069;-74
2023/06/05 11:28:07;;;;;;;4.25;2.53;;;;;;;;;;4993231;28;20124;-74
2023/06/05 11:30:44;;;;;;;5.00;3.03;;;;;;;;;;4992946;28;20479;-74
2023/06/05 11:33:16;;;;;;;4.22;2.67;;;;;;;;;;5008880;28;20054;-74
2023/06/05 11:35:46;;;;;;;3.17;2.83;;;;;;;;;;4993161;28;20062;-74
2023/06/05 11:38:14;;;;;;;4.03;2.80;;;;;;;;;;4993222;28;20415;-74
2023/06/05 11:40:42;;;;;;;4.60;3.10;;;;;;;;;;4992818;28;20371;-74
2023/06/05 11:43:10;;;;;;;3.63;2.45;;;;;;;;;;4993229;28;20109;-74
2023/06/05 11:45:39;;;;;;;3.70;3.05;;;;;;;;;;4992870;28;20054;-74
2023/06/05 11:48:12;;;;;;;6.88;2.83;;;;;;;;;;4992967;28;20061;-75
2023/06/05 11:50:51;;;;;;;5.28;2.85;;;;;;;;;;5009122;28;20137;-75
2023/06/05 11:53:18;;;;;;;6.72;2.50;;;;;;;;;;4978378;28;20519;-74
2023/06/05 11:55:55;;;;;;;2.90;2.60;;;;;;;;;;4992514;28;20085;-75
2023/06/05 11:58:22;;;;;;;4.13;2.97;;;;;;;;;;4994339;28;20100;-75
2023/06/05 12:00:50;;;;;;;3.60;3.17;;;;;;;;;;4960639;28;20050;-75
2023/06/05 12:03:20;;;;;;;6.30;2.85;;;;;;;;;;4976496;28;20495;-74
2023/06/05 12:05:48;;;;;;;4.43;2.80;;;;;;;;;;4992994;28;20054;-74
2023/06/05 12:08:25;;;;;;;3.97;2.67;;;;;;;;;;4992087;28;20058;-74
2023/06/05 12:10:52;;;;;;;3.83;3.45;;;;;;;;;;4992344;28;20078;-75
2023/06/05 12:13:19;;;;;;;3.53;2.95;;;;;;;;;;4992428;28;20054;-74
2023/06/05 12:15:59;;;;;;;4.30;2.80;;;;;;;;;;4976798;28;20108;-75
2023/06/05 12:18:33;;;;;;;4.20;2.42;;;;;;;;;;4997788;28;20054;-75
2023/06/05 12:21:00;;;;;;;6.80;3.50;;;;;;;;;;4976929;28;20058;-75
2023/06/05 12:23:33;;;;;;;4.82;3.22;;;;;;;;;;5008751;28;20137;-75
2023/06/05 12:26:01;;;;;;;3.13;2.83;;;;;;;;;;4993214;28;20054;-75
2023/06/05 12:28:28;;;;;;;3.10;2.90;;;;;;;;;;4992149;28;20145;-74
2023/06/05 12:30:55;;;;;;;3.10;2.80;;;;;;;;;;4991724;28;20054;-74
2023/06/05 12:33:24;;;;;;;3.95;2.72;;;;;;;;;;4992387;28;20128;-74
2023/06/05 12:36:07;;;;;;;3.45;2.53;;;;;;;;;;4992139;28;20400;-75
2023/06/05 12:38:38;;;;;;;3.22;2.90;;;;;;;;;;4991900;28;20190;-75
2023/06/05 12:41:06;;;;;;;3.83;3.00;;;;;;;;;;4975737;28;20057;-75
2023/06/05 12:43:33;;;;;;;3.42;2.63;;;;;;;;;;4975883;28;20148;-74
2023/06/05 12:46:01;;;;;;;4.07;2.45;;;;;;;;;;4991612;28;20058;-75
2023/06/05 12:48:28;;;;;;;4.05;2.70;;;;;;;;;;4991601;28;20112;-74
2023/06/05 12:50:55;;;;;;;3.30;2.75;;;;;;;;;;4991454;28;20054;-74
2023/06/05 12:53:22;;;;;;;3.83;2.88;;;;;;;;;;5007891;28;20141;-75
2023/06/05 12:55:49;;;;;;;3.88;2.72;;;;;;;;;;4991474;28;20140;-74
2023/06/05 12:58:16;;;;;;;3.70;3.08;;;;;;;;;;4991631;28;20141;-75
2023/06/05 13:00:44;;;;;;;4.43;3.00;;;;;;;;;;5007821;28;20466;-75
2023/06/05 13:03:12;;;;;;;3.20;2.90;;;;;;;;;;4975752;28;20145;-75
2023/06/05 13:05:39;;;;;;;2.67;2.47;;;;;;;;;;4991615;28;20141;-75
2023/06/05 13:08:06;;;;;;;4.50;2.90;;;;;;;;;;4991526;28;20109;-75
2023/06/05 13:10:33;;;;;;;4.30;3.25;;;;;;;;;;4990944;28;20092;-75
2023/06/05 13:12:59;;;;;;;4.22;2.80;;;;;;;;;;4994445;28;20081;-75
2023/06/05 13:15:26;;;;;;;3.78;3.28;;;;;;;;;;4995247;28;20156;-75
2023/06/05 13:17:53;;;;;;;4.78;2.90;;;;;;;;;;5003774;28;20054;-75
2023/06/05 13:20:20;;;;;;;5.82;2.70;;;;;;;;;;4976595;28;20065;-75
2023/06/05 13:22:46;;;;;;;4.50;3.17;;;;;;;;;;4995321;28;20058;-75
2023/06/05 13:25:13;;;;;;;5.30;2.75;;;;;;;;;;4996462;28;20536;-75
2023/06/05 13:27:40;;;;;;;3.60;3.20;;;;;;;;;;5008070;28;20140;-76
2023/06/05 13:30:08;;;;;;;3.90;3.05;;;;;;;;;;5008886;28;20105;-75
2023/06/05 13:32:38;;;;;;;3.63;3.17;;;;;;;;;;4991129;28;20046;-75
2023/06/05 13:35:07;;;;;;;6.65;3.33;;;;;;;;;;4992938;28;20459;-75
2023/06/05 13:37:35;;;;;;;3.60;2.83;;;;;;;;;;4979473;28;20054;-75
2023/06/05 13:40:05;;;;;;;5.55;3.22;;;;;;;;;;4996244;28;20501;-75
2023/06/05 13:42:33;;;;;;;3.55;2.92;;;;;;;;;;4995358;28;20049;-75
2023/06/05 13:45:00;;;;;;;3.00;2.55;;;;;;;;;;5011326;28;20486;-75
2023/06/05 13:47:26;;;;;;;4.65;2.90;;;;;;;;;;4995183;28;20062;-75
2023/06/05 13:49:53;;;;;;;5.85;3.65;;;;;;;;;;4994775;28;20054;-75
2023/06/05 13:52:21;;;;;;;3.42;2.70;;;;;;;;;;4995041;28;20058;-75
2023/06/05 13:54:47;;;;;;;4.72;3.25;;;;;;;;;;4979018;28;20120;-75
2023/06/05 13:57:16;;;;;;;3.55;3.17;;;;;;;;;;5011402;28;20058;-75
2023/06/05 13:59:44;;;;;;;5.00;3.30;;;;;;;;;;4979311;28;20050;-75
2023/06/05 14:02:11;;;;;;;4.38;3.03;;;;;;;;;;5010897;28;20054;-75
2023/06/05 14:04:38;;;;;;;3.92;3.03;;;;;;;;;;4994607;28;20054;-75
2023/06/05 14:07:05;;;;;;;5.75;3.40;;;;;;;;;;4994602;28;20097;-75
2023/06/05 14:09:33;;;;;;;4.88;2.85;;;;;;;;;;5010815;28;20058;-75
2023/06/05 14:12:00;;;;;;;5.55;2.90;;;;;;;;;;5010813;28;20141;-75
2023/06/05 14:14:27;;;;;;;7.85;3.10;;;;;;;;;;4995842;28;20060;-75
2023/06/05 14:16:53;;;;;;;3.28;2.63;;;;;;;;;;5010710;28;20046;-75
2023/06/05 14:19:20;;;;;;;5.40;2.70;;;;;;;;;;4994445;28;20092;-75
2023/06/05 14:21:47;;;;;;;6.82;2.70;;;;;;;;;;4994320;28;20141;-75
2023/06/05 14:24:15;;;;;;;8.00;3.20;;;;;;;;;;4994384;28;20495;-74
2023/06/05 14:26:41;;;;;;;3.78;3.08;;;;;;;;;;4994410;28;20147;-74
2023/06/05 14:29:08;;;;;;;3.35;2.85;;;;;;;;;;4994369;28;20089;-75
2023/06/05 14:31:37;;;;;;;5.18;2.97;;;;;;;;;;4994029;28;20097;-75
2023/06/05 14:34:04;;;;;;;5.75;2.75;;;;;;;;;;5010559;28;20491;-75
2023/06/05 14:36:31;;;;;;;3.28;2.85;;;;;;;;;;4994215;28;20097;-75
2023/06/05 14:38:57;;;;;;;4.55;2.83;;;;;;;;;;4978241;28;20062;-76
2023/06/05 14:41:24;;;;;;;5.65;2.75;;;;;;;;;;4993905;28;20071;-75
2023/06/05 14:43:52;;;;;;;4.05;2.70;;;;;;;;;;4994119;28;20129;-75
2023/06/05 14:46:18;;;;;;;6.68;2.80;;;;;;;;;;5008940;28;20499;-75
2023/06/05 14:48:46;;;;;;;5.10;2.63;;;;;;;;;;4993899;28;20061;-75
2023/06/05 14:51:12;;;;;;;3.05;2.70;;;;;;;;;;5009780;28;20578;-75
2023/06/05 14:53:39;;;;;;;2.50;2.20;;;;;;;;;;4993759;28;20090;-75